sensor_id;sensor_type;location;lat;lon;timestamp;pressure;altitude;pressure_sealevel;temperature;humidity
22647;BME280;11490;42.726;23.268;2023-05-20T00:00:10;95553.66;;;13.02;100.00
22647;BME280;11490;42.726;23.268;2023-05-20T00:02:36;95552.38;;;13.21;100.00
22647;BME280;11490;42.726;23.268;2023-05-20T00:05:01;95550.00;;;13.08;100.00
22647;BME280;11490;42.726;23.268;2023-05-20T00:07:27;95547.44;;;13.13;100.00
22647;BME280;11490;42.726;23.268;2023-05-20T00:09:52;95546.97;;;12.54;100.00
22647;BME280;11490;42.726;23.268;2023-05-20T00:12:18;95536.13;;;12.78;100.00
22647;BME280;11490;42.726;23.268;2023-05-20T00:14:43;95540.84;;;13.04;100.00
22647;BME280;11490;42.726;23.268;2023-05-20T00:17:08;95539.22;;;13.20;100.00
22647;BME280;11490;42.726;23.268;2023-05-20T00:19:34;95539.06;;;12.93;100.00
22647;BME280;11490;42.726;23.268;2023-05-20T00:21:59;95522.56;;;12.51;100.00
22647;BME280;11490;42.726;23.268;2023-05-20T00:24:25;95526.53;;;12.48;100.00
22647;BME280;11490;42.726;23.268;2023-05-20T00:26:51;95533.19;;;12.62;100.00
22647;BME280;11490;42.726;23.268;2023-05-20T00:29:16;95520.78;;;12.56;100.00
22647;BME280;11490;42.726;23.268;2023-05-20T00:31:42;95520.53;;;12.41;100.00
22647;BME280;11490;42.726;23.268;2023-05-20T00:34:08;95525.59;;;12.71;100.00
22647;BME280;11490;42.726;23.268;2023-05-20T00:36:34;95514.72;;;12.78;100.00
22647;BME280;11490;42.726;23.268;2023-05-20T00:38:59;95527.84;;;12.62;100.00
22647;BME280;11490;42.726;23.268;2023-05-20T00:41:25;95525.28;;;12.67;100.00
22647;BME280;11490;42.726;23.268;2023-05-20T00:43:54;95515.19;;;12.41;100.00
22647;BME280;11490;42.726;23.268;2023-05-20T00:46:21;95520.22;;;12.71;100.00
22647;BME280;11490;42.726;23.268;2023-05-20T00:48:46;95520.81;;;12.90;100.00
22647;BME280;11490;42.726;23.268;2023-05-20T00:51:13;95509.69;;;12.98;100.00
22647;BME280;11490;42.726;23.268;2023-05-20T00:53:39;95519.28;;;12.60;100.00
22647;BME280;11490;42.726;23.268;2023-05-20T00:56:06;95508.16;;;12.52;100.00
22647;BME280;11490;42.726;23.268;2023-05-20T00:58:32;95514.81;;;12.83;100.00
22647;BME280;11490;42.726;23.268;2023-05-20T01:00:58;95517.72;;;12.64;100.00
22647;BME280;11490;42.726;23.268;2023-05-20T01:03:23;95514.47;;;12.62;100.00
22647;BME280;11490;42.726;23.268;2023-05-20T01:05:49;95497.28;;;12.75;100.00
22647;BME280;11490;42.726;23.268;2023-05-20T01:08:14;95502.38;;;12.93;100.00
22647;BME280;11490;42.726;23.268;2023-05-20T01:10:41;95497.53;;;12.73;100.00
22647;BME280;11490;42.726;23.268;2023-05-20T01:13:10;95510.09;;;12.73;100.00
22647;BME280;11490;42.726;23.268;2023-05-20T01:15:40;95499.63;;;12.71;100.00
22647;BME280;11490;42.726;23.268;2023-05-20T01:18:08;95507.25;;;12.80;100.00
22647;BME280;11490;42.726;23.268;2023-05-20T01:20:35;95503.88;;;12.67;100.00
22647;BME280;11490;42.726;23.268;2023-05-20T01:23:01;95511.63;;;12.86;100.00
22647;BME280;11490;42.726;23.268;2023-05-20T01:25:27;95502.66;;;12.13;100.00
22647;BME280;11490;42.726;23.268;2023-05-20T01:27:55;95506.88;;;12.26;100.00
22647;BME280;11490;42.726;23.268;2023-05-20T01:30:22;95499.91;;;12.25;100.00
22647;BME280;11490;42.726;23.268;2023-05-20T01:33:02;95515.09;;;12.36;100.00
22647;BME280;11490;42.726;23.268;2023-05-20T01:35:29;95518.13;;;12.56;100.00
22647;BME280;11490;42.726;23.268;2023-05-20T01:37:56;95507.53;;;12.33;100.00
22647;BME280;11490;42.726;23.268;2023-05-20T01:40:23;95502.00;;;12.51;100.00
22647;BME280;11490;42.726;23.268;2023-05-20T01:42:49;95494.53;;;12.53;100.00
22647;BME280;11490;42.726;23.268;2023-05-20T01:45:17;95513.09;;;12.43;100.00
22647;BME280;11490;42.726;23.268;2023-05-20T01:47:46;95503.09;;;11.93;100.00
22647;BME280;11490;42.726;23.268;2023-05-20T01:50:11;95503.66;;;11.95;100.00
22647;BME280;11490;42.726;23.268;2023-05-20T01:52:37;95502.78;;;12.35;100.00
22647;BME280;11490;42.726;23.268;2023-05-20T01:55:02;95508.50;;;12.27;100.00
22647;BME280;11490;42.726;23.268;2023-05-20T01:57:28;95496.84;;;12.33;100.00
22647;BME280;11490;42.726;23.268;2023-05-20T01:59:53;95504.44;;;12.08;100.00
22647;BME280;11490;42.726;23.268;2023-05-20T02:02:18;95502.47;;;12.03;100.00
22647;BME280;11490;42.726;23.268;2023-05-20T02:04:45;95500.50;;;12.27;100.00
22647;BME280;11490;42.726;23.268;2023-05-20T02:07:14;95499.09;;;12.08;100.00
22647;BME280;11490;42.726;23.268;2023-05-20T02:09:39;95502.03;;;12.23;100.00
22647;BME280;11490;42.726;23.268;2023-05-20T02:12:06;95490.56;;;12.11;100.00
22647;BME280;11490;42.726;23.268;2023-05-20T02:14:31;95486.78;;;12.07;100.00
22647;BME280;11490;42.726;23.268;2023-05-20T02:16:57;95498.78;;;12.21;100.00
22647;BME280;11490;42.726;23.268;2023-05-20T02:19:22;95483.06;;;12.24;100.00
22647;BME280;11490;42.726;23.268;2023-05-20T02:21:48;95488.75;;;12.28;100.00
22647;BME280;11490;42.726;23.268;2023-05-20T02:24:14;95483.06;;;12.24;100.00
22647;BME280;11490;42.726;23.268;2023-05-20T02:26:40;95486.38;;;12.15;100.00
22647;BME280;11490;42.726;23.268;2023-05-20T02:29:05;95489.72;;;12.22;100.00
22647;BME280;11490;42.726;23.268;2023-05-20T02:31:30;95482.84;;;11.98;100.00
22647;BME280;11490;42.726;23.268;2023-05-20T02:33:56;95489.94;;;12.20;100.00
22647;BME280;11490;42.726;23.268;2023-05-20T02:36:21;95478.53;;;11.68;100.00
22647;BME280;11490;42.726;23.268;2023-05-20T02:38:47;95482.94;;;11.74;100.00
22647;BME280;11490;42.726;23.268;2023-05-20T02:41:12;95489.44;;;11.78;100.00
22647;BME280;11490;42.726;23.268;2023-05-20T02:43:38;95491.88;;;11.80;100.00
22647;BME280;11490;42.726;23.268;2023-05-20T02:46:05;95488.19;;;11.98;100.00
22647;BME280;11490;42.726;23.268;2023-05-20T02:48:30;95500.72;;;11.69;100.00
22647;BME280;11490;42.726;23.268;2023-05-20T02:50:57;95486.91;;;11.60;100.00
22647;BME280;11490;42.726;23.268;2023-05-20T02:53:23;95491.25;;;11.89;100.00
22647;BME280;11490;42.726;23.268;2023-05-20T02:55:48;95496.22;;;11.98;100.00
22647;BME280;11490;42.726;23.268;2023-05-20T02:58:15;95474.53;;;11.31;100.00
22647;BME280;11490;42.726;23.268;2023-05-20T03:00:41;95493.63;;;11.74;100.00
22647;BME280;11490;42.726;23.268;2023-05-20T03:03:07;95496.41;;;11.79;100.00
22647;BME280;11490;42.726;23.268;2023-05-20T03:05:34;95494.56;;;11.68;100.00
22647;BME280;11490;42.726;23.268;2023-05-20T03:08:07;95502.78;;;11.78;100.00
22647;BME280;11490;42.726;23.268;2023-05-20T03:10:34;95508.94;;;11.79;100.00
22647;BME280;11490;42.726;23.268;2023-05-20T03:13:00;95509.88;;;11.84;100.00
22647;BME280;11490;42.726;23.268;2023-05-20T03:15:25;95517.03;;;11.95;100.00
22647;BME280;11490;42.726;23.268;2023-05-20T03:17:50;95516.13;;;11.90;100.00
22647;BME280;11490;42.726;23.268;2023-05-20T03:20:16;95507.28;;;11.38;100.00
22647;BME280;11490;42.726;23.268;2023-05-20T03:22:41;95529.53;;;11.67;100.00
22647;BME280;11490;42.726;23.268;2023-05-20T03:25:07;95526.50;;;11.75;100.00
22647;BME280;11490;42.726;23.268;2023-05-20T03:27:33;95515.53;;;11.25;100.00
22647;BME280;11490;42.726;23.268;2023-05-20T03:30:01;95511.56;;;11.39;100.00
22647;BME280;11490;42.726;23.268;2023-05-20T03:32:27;95509.69;;;11.51;100.00
22647;BME280;11490;42.726;23.268;2023-05-20T03:34:52;95514.16;;;11.74;100.00
22647;BME280;11490;42.726;23.268;2023-05-20T03:37:18;95514.28;;;11.90;100.00
22647;BME280;11490;42.726;23.268;2023-05-20T03:39:44;95518.69;;;11.73;100.00
22647;BME280;11490;42.726;23.268;2023-05-20T03:42:09;95516.03;;;11.62;100.00
22647;BME280;11490;42.726;23.268;2023-05-20T03:44:35;95520.25;;;11.57;100.00
22647;BME280;11490;42.726;23.268;2023-05-20T03:47:00;95525.69;;;11.74;100.00
22647;BME280;11490;42.726;23.268;2023-05-20T03:49:26;95526.69;;;11.45;100.00
22647;BME280;11490;42.726;23.268;2023-05-20T03:51:51;95525.47;;;11.64;100.00
22647;BME280;11490;42.726;23.268;2023-05-20T03:54:16;95539.22;;;11.96;100.00
22647;BME280;11490;42.726;23.268;2023-05-20T03:56:42;95529.06;;;12.10;100.00
22647;BME280;11490;42.726;23.268;2023-05-20T03:59:07;95538.59;;;12.34;100.00
22647;BME280;11490;42.726;23.268;2023-05-20T04:01:32;95537.47;;;12.47;100.00
22647;BME280;11490;42.726;23.268;2023-05-20T04:03:58;95538.41;;;12.52;100.00
22647;BME280;11490;42.726;23.268;2023-05-20T04:06:24;95543.16;;;12.50;100.00
22647;BME280;11490;42.726;23.268;2023-05-20T04:08:50;95543.75;;;12.52;100.00
22647;BME280;11490;42.726;23.268;2023-05-20T04:11:16;95555.09;;;12.59;100.00
22647;BME280;11490;42.726;23.268;2023-05-20T04:13:42;95559.47;;;12.65;100.00
22647;BME280;11490;42.726;23.268;2023-05-20T04:16:07;95557.78;;;12.59;100.00
22647;BME280;11490;42.726;23.268;2023-05-20T04:18:32;95554.53;;;12.57;100.00
22647;BME280;11490;42.726;23.268;2023-05-20T04:20:58;95551.78;;;12.52;100.00
22647;BME280;11490;42.726;23.268;2023-05-20T04:23:25;95551.22;;;12.67;100.00
22647;BME280;11490;42.726;23.268;2023-05-20T04:25:51;95547.78;;;12.55;100.00
22647;BME280;11490;42.726;23.268;2023-05-20T04:28:16;95540.16;;;12.47;100.00
22647;BME280;11490;42.726;23.268;2023-05-20T04:30:42;95548.31;;;12.68;100.00
22647;BME280;11490;42.726;23.268;2023-05-20T04:33:09;95540.50;;;12.67;100.00
22647;BME280;11490;42.726;23.268;2023-05-20T04:35:35;95560.63;;;12.86;100.00
22647;BME280;11490;42.726;23.268;2023-05-20T04:38:01;95549.78;;;12.93;100.00
22647;BME280;11490;42.726;23.268;2023-05-20T04:40:27;95558.53;;;13.05;100.00
22647;BME280;11490;42.726;23.268;2023-05-20T04:42:52;95552.38;;;13.21;100.00
22647;BME280;11490;42.726;23.268;2023-05-20T04:45:18;95557.53;;;13.44;100.00
22647;BME280;11490;42.726;23.268;2023-05-20T04:47:44;95557.03;;;13.47;100.00
22647;BME280;11490;42.726;23.268;2023-05-20T04:50:10;95569.97;;;13.94;100.00
22647;BME280;11490;42.726;23.268;2023-05-20T04:52:36;95552.78;;;13.13;100.00
22647;BME280;11490;42.726;23.268;2023-05-20T04:55:04;95562.94;;;13.66;100.00
22647;BME280;11490;42.726;23.268;2023-05-20T04:57:29;95560.69;;;13.80;100.00
22647;BME280;11490;42.726;23.268;2023-05-20T04:59:55;95554.41;;;13.91;100.00
22647;BME280;11490;42.726;23.268;2023-05-20T05:02:23;95555.69;;;14.10;100.00
22647;BME280;11490;42.726;23.268;2023-05-20T05:04:49;95561.06;;;14.10;100.00
22647;BME280;11490;42.726;23.268;2023-05-20T05:07:15;95560.16;;;14.26;100.00
22647;BME280;11490;42.726;23.268;2023-05-20T05:09:40;95558.66;;;14.36;100.00
22647;BME280;11490;42.726;23.268;2023-05-20T05:12:06;95557.66;;;14.42;99.87
22647;BME280;11490;42.726;23.268;2023-05-20T05:14:31;95560.47;;;14.52;99.52
22647;BME280;11490;42.726;23.268;2023-05-20T05:16:56;95559.28;;;14.43;100.00
22647;BME280;11490;42.726;23.268;2023-05-20T05:19:22;95554.66;;;14.60;100.00
22647;BME280;11490;42.726;23.268;2023-05-20T05:21:47;95557.97;;;14.72;100.00
22647;BME280;11490;42.726;23.268;2023-05-20T05:24:13;95560.78;;;14.55;99.79
22647;BME280;11490;42.726;23.268;2023-05-20T05:26:38;95545.94;;;14.48;100.00
22647;BME280;11490;42.726;23.268;2023-05-20T05:29:03;95553.19;;;14.79;100.00
22647;BME280;11490;42.726;23.268;2023-05-20T05:31:29;95556.78;;;14.90;100.00
22647;BME280;11490;42.726;23.268;2023-05-20T05:33:54;95555.66;;;15.18;99.62
22647;BME280;11490;42.726;23.268;2023-05-20T05:36:19;95538.56;;;15.34;97.70
22647;BME280;11490;42.726;23.268;2023-05-20T05:38:45;95552.09;;;15.49;98.40
22647;BME280;11490;42.726;23.268;2023-05-20T05:41:10;95538.19;;;15.57;95.88
22647;BME280;11490;42.726;23.268;2023-05-20T05:43:36;95544.69;;;15.61;95.55
22647;BME280;11490;42.726;23.268;2023-05-20T05:46:01;95541.44;;;15.54;97.80
22647;BME280;11490;42.726;23.268;2023-05-20T05:48:27;95549.03;;;15.67;96.49
22647;BME280;11490;42.726;23.268;2023-05-20T05:50:52;95551.72;;;15.72;95.94
22647;BME280;11490;42.726;23.268;2023-05-20T05:53:17;95543.16;;;15.81;98.00
22647;BME280;11490;42.726;23.268;2023-05-20T05:55:45;95551.34;;;16.01;96.70
22647;BME280;11490;42.726;23.268;2023-05-20T05:58:10;95533.88;;;16.08;96.45
22647;BME280;11490;42.726;23.268;2023-05-20T06:00:36;95547.13;;;16.25;95.21
22647;BME280;11490;42.726;23.268;2023-05-20T06:03:01;95528.53;;;16.24;95.97
22647;BME280;11490;42.726;23.268;2023-05-20T06:05:27;95539.09;;;16.45;95.91
22647;BME280;11490;42.726;23.268;2023-05-20T06:07:52;95536.66;;;16.44;95.30
22647;BME280;11490;42.726;23.268;2023-05-20T06:10:18;95528.13;;;16.62;95.42
22647;BME280;11490;42.726;23.268;2023-05-20T06:12:43;95512.22;;;16.61;93.76
22647;BME280;11490;42.726;23.268;2023-05-20T06:15:09;95534.88;;;17.10;93.51
22647;BME280;11490;42.726;23.268;2023-05-20T06:17:35;95531.63;;;17.28;93.08
22647;BME280;11490;42.726;23.268;2023-05-20T06:20:00;95526.75;;;17.46;94.72
22647;BME280;11490;42.726;23.268;2023-05-20T06:22:26;95536.19;;;17.63;89.91
22647;BME280;11490;42.726;23.268;2023-05-20T06:24:52;95531.63;;;17.18;88.82
22647;BME280;11490;42.726;23.268;2023-05-20T06:27:18;95505.69;;;17.53;90.46
22647;BME280;11490;42.726;23.268;2023-05-20T06:29:43;95511.84;;;17.74;87.23
22647;BME280;11490;42.726;23.268;2023-05-20T06:32:09;95533.09;;;18.00;87.27
22647;BME280;11490;42.726;23.268;2023-05-20T06:34:34;95503.13;;;18.02;87.54
22647;BME280;11490;42.726;23.268;2023-05-20T06:36:59;95491.44;;;18.17;86.80
22647;BME280;11490;42.726;23.268;2023-05-20T06:39:27;95513.13;;;18.45;86.35
22647;BME280;11490;42.726;23.268;2023-05-20T06:41:52;95500.94;;;18.53;86.02
22647;BME280;11490;42.726;23.268;2023-05-20T06:44:18;95492.84;;;18.58;83.08
22647;BME280;11490;42.726;23.268;2023-05-20T06:46:43;95516.94;;;18.89;77.92
22647;BME280;11490;42.726;23.268;2023-05-20T06:49:09;95501.53;;;18.89;76.38
22647;BME280;11490;42.726;23.268;2023-05-20T06:51:34;95497.94;;;18.60;76.18
22647;BME280;11490;42.726;23.268;2023-05-20T06:54:00;95489.41;;;18.81;78.58
22647;BME280;11490;42.726;23.268;2023-05-20T06:56:25;95518.88;;;19.17;79.39
22647;BME280;11490;42.726;23.268;2023-05-20T06:58:54;95512.03;;;18.96;74.79
22647;BME280;11490;42.726;23.268;2023-05-20T07:01:19;95533.94;;;19.23;72.70
22647;BME280;11490;42.726;23.268;2023-05-20T07:03:44;95512.09;;;18.86;73.58
22647;BME280;11490;42.726;23.268;2023-05-20T07:06:10;95519.41;;;19.19;70.95
22647;BME280;11490;42.726;23.268;2023-05-20T07:08:35;95502.09;;;19.15;70.36
22647;BME280;11490;42.726;23.268;2023-05-20T07:11:01;95502.59;;;19.22;70.08
22647;BME280;11490;42.726;23.268;2023-05-20T07:13:26;95490.66;;;19.57;71.45
22647;BME280;11490;42.726;23.268;2023-05-20T07:15:52;95482.13;;;19.69;70.83
22647;BME280;11490;42.726;23.268;2023-05-20T07:18:17;95502.50;;;19.85;71.78
22647;BME280;11490;42.726;23.268;2023-05-20T07:20:43;95515.75;;;19.86;69.15
22647;BME280;11490;42.726;23.268;2023-05-20T07:23:09;95507.56;;;19.91;72.94
22647;BME280;11490;42.726;23.268;2023-05-20T07:25:35;95495.25;;;20.04;69.69
22647;BME280;11490;42.726;23.268;2023-05-20T07:28:00;95520.78;;;20.41;66.64
22647;BME280;11490;42.726;23.268;2023-05-20T07:30:26;95509.53;;;20.71;69.35
22647;BME280;11490;42.726;23.268;2023-05-20T07:32:52;95517.41;;;20.86;66.32
22647;BME280;11490;42.726;23.268;2023-05-20T07:35:17;95498.59;;;20.39;64.43
22647;BME280;11490;42.726;23.268;2023-05-20T07:37:43;95504.69;;;20.68;68.97
22647;BME280;11490;42.726;23.268;2023-05-20T07:40:08;95496.63;;;20.63;63.42
22647;BME280;11490;42.726;23.268;2023-05-20T07:42:34;95508.47;;;21.04;64.59
22647;BME280;11490;42.726;23.268;2023-05-20T07:44:59;95494.06;;;21.23;63.96
22647;BME280;11490;42.726;23.268;2023-05-20T07:47:25;95477.84;;;21.36;62.95
22647;BME280;11490;42.726;23.268;2023-05-20T07:49:50;95496.72;;;21.28;60.39
22647;BME280;11490;42.726;23.268;2023-05-20T07:52:15;95496.09;;;21.31;61.89
22647;BME280;11490;42.726;23.268;2023-05-20T07:54:41;95519.09;;;21.79;65.20
22647;BME280;11490;42.726;23.268;2023-05-20T07:57:07;95490.75;;;21.72;63.17
22647;BME280;11490;42.726;23.268;2023-05-20T07:59:33;95477.84;;;21.77;60.99
22647;BME280;11490;42.726;23.268;2023-05-20T08:01:58;95509.41;;;22.06;63.75
22647;BME280;11490;42.726;23.268;2023-05-20T08:04:24;95509.34;;;22.33;61.63
22647;BME280;11490;42.726;23.268;2023-05-20T08:06:51;95509.47;;;22.28;65.71
22647;BME280;11490;42.726;23.268;2023-05-20T08:09:17;95488.28;;;22.39;65.01
22647;BME280;11490;42.726;23.268;2023-05-20T08:11:43;95479.63;;;22.50;63.40
22647;BME280;11490;42.726;23.268;2023-05-20T08:14:08;95493.06;;;22.83;62.76
22647;BME280;11490;42.726;23.268;2023-05-20T08:16:35;95467.63;;;22.87;60.25
22647;BME280;11490;42.726;23.268;2023-05-20T08:19:00;95474.50;;;22.85;59.69
22647;BME280;11490;42.726;23.268;2023-05-20T08:21:25;95491.59;;;22.99;58.98
22647;BME280;11490;42.726;23.268;2023-05-20T08:23:51;95494.91;;;23.18;57.31
22647;BME280;11490;42.726;23.268;2023-05-20T08:26:17;95488.94;;;23.38;59.86
22647;BME280;11490;42.726;23.268;2023-05-20T08:28:42;95481.03;;;23.28;59.88
22647;BME280;11490;42.726;23.268;2023-05-20T08:31:07;95496.50;;;22.61;61.49
22647;BME280;11490;42.726;23.268;2023-05-20T08:33:33;95475.19;;;22.90;62.52
22647;BME280;11490;42.726;23.268;2023-05-20T08:35:59;95488.03;;;22.62;61.91
22647;BME280;11490;42.726;23.268;2023-05-20T08:38:24;95457.69;;;23.05;60.75
22647;BME280;11490;42.726;23.268;2023-05-20T08:40:54;95482.47;;;23.03;60.40
22647;BME280;11490;42.726;23.268;2023-05-20T08:43:19;95485.25;;;21.31;60.12
22647;BME280;11490;42.726;23.268;2023-05-20T08:45:45;95491.31;;;21.55;61.69
22647;BME280;11490;42.726;23.268;2023-05-20T08:48:10;95479.47;;;21.78;63.99
22647;BME280;11490;42.726;23.268;2023-05-20T08:50:37;95456.53;;;21.57;62.39
22647;BME280;11490;42.726;23.268;2023-05-20T08:53:03;95468.19;;;22.26;61.51
22647;BME280;11490;42.726;23.268;2023-05-20T08:58:20;95491.56;;;22.27;58.93
22647;BME280;11490;42.726;23.268;2023-05-20T09:00:46;95497.94;;;22.58;56.77
22647;BME280;11490;42.726;23.268;2023-05-20T09:03:11;95479.38;;;22.96;59.40
22647;BME280;11490;42.726;23.268;2023-05-20T09:05:36;95471.34;;;23.14;58.29
22647;BME280;11490;42.726;23.268;2023-05-20T09:08:06;95472.53;;;23.21;56.25
22647;BME280;11490;42.726;23.268;2023-05-20T09:10:33;95466.97;;;23.04;55.91
22647;BME280;11490;42.726;23.268;2023-05-20T09:13:03;95489.22;;;23.28;55.79
22647;BME280;11490;42.726;23.268;2023-05-20T09:15:32;95461.75;;;23.16;58.40
22647;BME280;11490;42.726;23.268;2023-05-20T09:18:02;95482.97;;;23.50;55.58
22647;BME280;11490;42.726;23.268;2023-05-20T09:20:29;95458.50;;;23.06;55.91
22647;BME280;11490;42.726;23.268;2023-05-20T09:23:00;95451.66;;;23.17;56.23
22647;BME280;11490;42.726;23.268;2023-05-20T09:25:26;95460.38;;;23.50;57.79
22647;BME280;11490;42.726;23.268;2023-05-20T09:27:51;95442.59;;;22.99;55.63
22647;BME280;11490;42.726;23.268;2023-05-20T09:30:20;95475.66;;;23.37;57.75
22647;BME280;11490;42.726;23.268;2023-05-20T09:35:19;95442.06;;;22.88;59.23
22647;BME280;11490;42.726;23.268;2023-05-20T09:37:46;95452.34;;;23.22;54.55
22647;BME280;11490;42.726;23.268;2023-05-20T09:40:12;95458.69;;;23.40;53.12
22647;BME280;11490;42.726;23.268;2023-05-20T09:43:03;95468.78;;;23.70;56.36
22647;BME280;11490;42.726;23.268;2023-05-20T09:45:29;95445.31;;;24.00;56.39
22647;BME280;11490;42.726;23.268;2023-05-20T09:47:55;95454.59;;;23.82;53.62
22647;BME280;11490;42.726;23.268;2023-05-20T09:50:22;95432.84;;;22.76;56.22
22647;BME280;11490;42.726;23.268;2023-05-20T09:52:50;95437.31;;;23.25;54.10
22647;BME280;11490;42.726;23.268;2023-05-20T09:55:16;95433.44;;;23.48;56.61
22647;BME280;11490;42.726;23.268;2023-05-20T09:57:43;95442.69;;;23.47;53.64
22647;BME280;11490;42.726;23.268;2023-05-20T10:00:09;95421.22;;;23.68;57.64
22647;BME280;11490;42.726;23.268;2023-05-20T10:02:41;95429.81;;;23.53;53.53
22647;BME280;11490;42.726;23.268;2023-05-20T10:05:13;95429.16;;;23.56;53.09
22647;BME280;11490;42.726;23.268;2023-05-20T10:13:34;95438.06;;;23.78;53.76
22647;BME280;11490;42.726;23.268;2023-05-20T10:21:29;95395.06;;;23.27;53.68
22647;BME280;11490;42.726;23.268;2023-05-20T10:24:10;95396.63;;;23.51;52.18
22647;BME280;11490;42.726;23.268;2023-05-20T10:26:40;95386.47;;;23.42;53.20
22647;BME280;11490;42.726;23.268;2023-05-20T10:29:19;95382.88;;;23.56;53.15
22647;BME280;11490;42.726;23.268;2023-05-20T10:31:51;95407.25;;;23.38;52.42
22647;BME280;11490;42.726;23.268;2023-05-20T10:34:18;95393.63;;;23.61;53.31
22647;BME280;11490;42.726;23.268;2023-05-20T10:37:04;95386.66;;;23.94;56.06
22647;BME280;11490;42.726;23.268;2023-05-20T10:39:31;95397.09;;;24.09;50.45
22647;BME280;11490;42.726;23.268;2023-05-20T10:42:06;95369.03;;;23.83;50.79
22647;BME280;11490;42.726;23.268;2023-05-20T10:44:45;95391.75;;;23.08;52.23
22647;BME280;11490;42.726;23.268;2023-05-20T10:47:11;95371.31;;;23.19;51.63
22647;BME280;11490;42.726;23.268;2023-05-20T10:49:43;95362.53;;;23.62;53.57
22647;BME280;11490;42.726;23.268;2023-05-20T10:52:10;95363.88;;;23.82;53.72
22647;BME280;11490;42.726;23.268;2023-05-20T10:54:47;95369.03;;;23.44;51.68
22647;BME280;11490;42.726;23.268;2023-05-20T10:57:19;95375.06;;;23.01;50.99
22647;BME280;11490;42.726;23.268;2023-05-20T10:59:45;95372.56;;;22.82;50.99
22647;BME280;11490;42.726;23.268;2023-05-20T11:02:14;95375.81;;;22.71;51.97
22647;BME280;11490;42.726;23.268;2023-05-20T11:04:43;95366.78;;;22.75;51.26
22647;BME280;11490;42.726;23.268;2023-05-20T11:07:09;95336.28;;;22.87;50.81
22647;BME280;11490;42.726;23.268;2023-05-20T11:09:35;95368.84;;;23.40;51.42
22647;BME280;11490;42.726;23.268;2023-05-20T11:12:00;95365.78;;;23.02;50.59
22647;BME280;11490;42.726;23.268;2023-05-20T11:14:29;95367.78;;;22.65;51.46
22647;BME280;11490;42.726;23.268;2023-05-20T11:16:57;95356.41;;;22.86;52.26
22647;BME280;11490;42.726;23.268;2023-05-20T11:19:22;95360.88;;;22.82;52.06
22647;BME280;11490;42.726;23.268;2023-05-20T11:21:48;95347.69;;;22.97;52.97
22647;BME280;11490;42.726;23.268;2023-05-20T11:24:22;95360.16;;;23.29;53.79
22647;BME280;11490;42.726;23.268;2023-05-20T11:26:49;95350.41;;;23.68;54.96
22647;BME280;11490;42.726;23.268;2023-05-20T11:29:18;95340.28;;;23.60;52.17
22647;BME280;11490;42.726;23.268;2023-05-20T11:31:46;95336.94;;;23.32;52.68
22647;BME280;11490;42.726;23.268;2023-05-20T11:34:11;95332.22;;;23.15;52.54
22647;BME280;11490;42.726;23.268;2023-05-20T11:36:44;95321.06;;;23.25;53.23
22647;BME280;11490;42.726;23.268;2023-05-20T11:39:13;95309.97;;;22.74;51.83
22647;BME280;11490;42.726;23.268;2023-05-20T11:41:41;95327.97;;;22.92;51.99
22647;BME280;11490;42.726;23.268;2023-05-20T11:44:10;95303.06;;;22.45;53.70
22647;BME280;11490;42.726;23.268;2023-05-20T11:46:42;95323.94;;;22.58;53.94
22647;BME280;11490;42.726;23.268;2023-05-20T11:49:09;95312.72;;;22.38;54.52
22647;BME280;11490;42.726;23.268;2023-05-20T11:51:36;95318.63;;;22.76;54.75
22647;BME280;11490;42.726;23.268;2023-05-20T11:54:06;95336.03;;;22.52;52.65
22647;BME280;11490;42.726;23.268;2023-05-20T11:56:33;95319.97;;;22.42;52.58
22647;BME280;11490;42.726;23.268;2023-05-20T11:59:00;95290.41;;;22.72;55.85
22647;BME280;11490;42.726;23.268;2023-05-20T12:01:29;95300.31;;;22.68;54.41
22647;BME280;11490;42.726;23.268;2023-05-20T12:03:55;95288.56;;;22.81;55.21
22647;BME280;11490;42.726;23.268;2023-05-20T12:06:20;95299.31;;;22.63;52.19
22647;BME280;11490;42.726;23.268;2023-05-20T12:08:46;95282.50;;;22.61;52.96
22647;BME280;11490;42.726;23.268;2023-05-20T12:11:12;95294.50;;;22.83;52.99
22647;BME280;11490;42.726;23.268;2023-05-20T12:13:38;95280.91;;;22.83;55.29
22647;BME280;11490;42.726;23.268;2023-05-20T12:16:04;95277.19;;;22.79;54.76
22647;BME280;11490;42.726;23.268;2023-05-20T12:18:30;95281.53;;;22.80;54.60
22647;BME280;11490;42.726;23.268;2023-05-20T12:21:00;95261.91;;;22.60;52.90
22647;BME280;11490;42.726;23.268;2023-05-20T12:23:25;95300.75;;;22.83;55.08
22647;BME280;11490;42.726;23.268;2023-05-20T12:25:51;95273.72;;;22.64;54.18
22647;BME280;11490;42.726;23.268;2023-05-20T12:28:21;95272.81;;;22.47;54.39
22647;BME280;11490;42.726;23.268;2023-05-20T12:30:47;95299.03;;;22.43;54.70
22647;BME280;11490;42.726;23.268;2023-05-20T12:33:12;95274.97;;;22.27;55.03
22647;BME280;11490;42.726;23.268;2023-05-20T12:35:39;95287.63;;;22.63;54.07
22647;BME280;11490;42.726;23.268;2023-05-20T12:38:08;95312.25;;;22.13;53.91
22647;BME280;11490;42.726;23.268;2023-05-20T12:40:35;95319.78;;;22.39;55.46
22647;BME280;11490;42.726;23.268;2023-05-20T12:43:01;95320.06;;;22.29;54.86
22647;BME280;11490;42.726;23.268;2023-05-20T12:45:27;95314.63;;;22.29;56.44
22647;BME280;11490;42.726;23.268;2023-05-20T12:47:56;95311.25;;;22.09;56.83
22647;BME280;11490;42.726;23.268;2023-05-20T12:50:23;95321.63;;;21.94;54.66
22647;BME280;11490;42.726;23.268;2023-05-20T12:52:48;95319.69;;;21.72;53.90
22647;BME280;11490;42.726;23.268;2023-05-20T12:55:14;95330.28;;;21.60;50.99
22647;BME280;11490;42.726;23.268;2023-05-20T12:57:40;95313.56;;;21.52;51.34